createdAt,value
2022-11-28T00:01:38.139Z,12.20
2022-11-28T00:04:10.127Z,13.00
2022-11-28T00:06:40.134Z,13.37
2022-11-28T00:09:09.609Z,12.13
2022-11-28T00:11:37.690Z,12.77
2022-11-28T00:14:05.803Z,12.60
2022-11-28T00:16:34.082Z,12.80
2022-11-28T00:19:02.997Z,10.60
2022-11-28T00:21:32.467Z,12.30
2022-11-28T00:24:01.453Z,11.77
2022-11-28T00:26:31.589Z,11.87
2022-11-28T00:29:00.542Z,12.13
2022-11-28T00:31:30.702Z,12.47
2022-11-28T00:33:58.954Z,13.43
2022-11-28T00:36:26.903Z,11.60
2022-11-28T00:38:56.641Z,12.17
2022-11-28T00:41:27.025Z,11.50
2022-11-28T00:43:55.344Z,13.43
2022-11-28T00:46:24.463Z,11.87
2022-11-28T00:48:52.897Z,11.57
2022-11-28T00:51:22.985Z,13.67
2022-11-28T00:53:52.634Z,11.60
2022-11-28T00:56:24.718Z,12.30
2022-11-28T00:58:52.966Z,12.30
2022-11-28T01:01:22.806Z,13.17
2022-11-28T01:03:52.518Z,10.63
2022-11-28T01:06:24.863Z,13.43
2022-11-28T01:08:53.137Z,12.93
2022-11-28T01:11:23.661Z,11.70
2022-11-28T01:13:51.893Z,12.43
2022-11-28T01:16:20.047Z,12.63
2022-11-28T01:18:48.060Z,10.47
2022-11-28T01:21:16.077Z,11.87
2022-11-28T01:23:44.450Z,11.73
2022-11-28T01:26:17.832Z,13.33
2022-11-28T01:28:47.363Z,12.47
2022-11-28T01:31:17.914Z,13.30
2022-11-28T01:33:46.214Z,12.97
2022-11-28T01:36:15.371Z,12.23
2022-11-28T01:38:43.960Z,13.80
2022-11-28T01:41:12.460Z,15.30
2022-11-28T01:44:00.789Z,11.57
2022-11-28T01:46:33.099Z,12.47
2022-11-28T01:49:05.640Z,12.50
2022-11-28T01:51:34.748Z,13.30
2022-11-28T01:54:03.776Z,12.10
2022-11-28T01:56:41.006Z,12.13
2022-11-28T01:59:12.836Z,11.27
2022-11-28T02:01:41.133Z,13.83
2022-11-28T02:04:10.166Z,13.60
2022-11-28T02:06:38.181Z,15.60
2022-11-28T02:09:10.740Z,13.33
2022-11-28T02:12:09.558Z,14.83
2022-11-28T02:15:01.874Z,13.87
2022-11-28T02:17:42.015Z,12.07
2022-11-28T02:20:48.168Z,12.03
2022-11-28T02:23:23.532Z,10.70
2022-11-28T02:26:11.907Z,11.50
2022-11-28T02:29:04.053Z,13.77
2022-11-28T02:31:57.597Z,13.87
2022-11-28T02:34:32.096Z,11.50
2022-11-28T02:37:07.336Z,13.33
2022-11-28T02:39:44.370Z,12.50
2022-11-28T02:42:19.446Z,12.87
2022-11-28T02:44:56.116Z,11.97
2022-11-28T02:47:26.829Z,12.47
2022-11-28T02:50:26.686Z,11.93
2022-11-28T02:53:01.269Z,11.83
2022-11-28T02:55:29.281Z,16.37
2022-11-28T02:57:57.277Z,13.43
2022-11-28T03:00:29.383Z,13.30
2022-11-28T03:03:17.304Z,12.50
2022-11-28T03:05:50.630Z,12.60
2022-11-28T03:08:36.562Z,12.20
2022-11-28T03:11:11.395Z,14.80
2022-11-28T03:13:43.468Z,13.60
2022-11-28T03:16:20.017Z,12.53
2022-11-28T03:19:02.242Z,14.30
2022-11-28T03:21:38.351Z,16.17
2022-11-28T03:24:14.007Z,13.10
2022-11-28T03:26:48.278Z,12.67
2022-11-28T03:29:21.743Z,14.47
2022-11-28T03:31:55.000Z,13.83
2022-11-28T03:34:27.931Z,13.53
2022-11-28T03:37:00.801Z,14.03
2022-11-28T03:39:35.384Z,14.17
2022-11-28T03:42:08.601Z,12.83
2022-11-28T03:44:41.056Z,13.23
2022-11-28T03:47:09.690Z,17.00
2022-11-28T03:49:40.828Z,14.07
2022-11-28T03:52:11.998Z,13.80
2022-11-28T03:54:49.852Z,13.03
2022-11-28T03:57:26.076Z,14.40
2022-11-28T03:59:56.259Z,14.50
2022-11-28T04:02:31.737Z,13.80
2022-11-28T04:05:04.351Z,14.67
2022-11-28T04:07:39.817Z,14.10
2022-11-28T04:10:15.425Z,13.87
2022-11-28T04:12:52.806Z,14.53
2022-11-28T04:15:27.862Z,15.13
2022-11-28T04:18:01.751Z,13.07
2022-11-28T04:20:36.669Z,13.77
2022-11-28T04:23:10.370Z,14.43
2022-11-28T04:25:45.711Z,14.20
2022-11-28T04:28:19.765Z,12.47
2022-11-28T04:30:50.828Z,15.67
2022-11-28T04:33:22.367Z,15.47
2022-11-28T04:35:53.039Z,15.67
2022-11-28T04:38:24.389Z,13.00
2022-11-28T04:40:57.568Z,12.57
2022-11-28T04:43:30.644Z,15.30
2022-11-28T04:46:05.533Z,13.70
2022-11-28T04:48:34.826Z,12.63
2022-11-28T04:51:11.438Z,13.20
2022-11-28T04:53:48.937Z,14.37
2022-11-28T04:56:22.900Z,13.57
2022-11-28T04:58:52.301Z,14.20
2022-11-28T05:01:24.450Z,14.53
2022-11-28T05:03:53.069Z,14.23
2022-11-28T05:06:27.033Z,14.20
2022-11-28T05:08:54.939Z,12.37
2022-11-28T05:11:24.416Z,16.47
2022-11-28T05:13:54.510Z,15.00
2022-11-28T05:16:23.678Z,13.77
2022-11-28T05:18:52.094Z,13.73
2022-11-28T05:21:20.380Z,19.17
2022-11-28T05:23:50.363Z,15.13
2022-11-28T05:26:20.494Z,14.23
2022-11-28T05:28:52.063Z,13.53
2022-11-28T05:31:26.721Z,15.83
2022-11-28T05:33:55.792Z,14.30
2022-11-28T05:36:26.211Z,12.93
2022-11-28T05:38:56.887Z,13.43
2022-11-28T05:41:29.011Z,14.33
2022-11-28T05:44:01.455Z,13.80
2022-11-28T05:46:30.233Z,14.67
2022-11-28T05:48:58.482Z,13.70
2022-11-28T05:51:26.435Z,15.67
2022-11-28T05:53:57.060Z,15.00
2022-11-28T05:56:25.202Z,13.23
2022-11-28T05:58:54.567Z,14.70
2022-11-28T06:01:25.465Z,15.23
2022-11-28T06:03:58.243Z,14.50
2022-11-28T06:06:27.206Z,13.87
2022-11-28T06:08:55.984Z,17.20
2022-11-28T06:11:25.910Z,13.80
2022-11-28T06:13:54.411Z,17.53
2022-11-28T06:16:25.306Z,16.30
2022-11-28T06:18:54.582Z,15.70
2022-11-28T06:21:24.168Z,13.00
2022-11-28T06:23:52.896Z,15.87
2022-11-28T06:26:24.800Z,15.53
2022-11-28T06:28:52.883Z,19.10
2022-11-28T06:31:24.003Z,16.27
2022-11-28T06:33:52.653Z,17.77
2022-11-28T06:36:21.471Z,15.17
2022-11-28T06:38:50.033Z,16.33
2022-11-28T06:41:20.263Z,14.53
2022-11-28T06:43:51.285Z,16.80
2022-11-28T06:46:21.552Z,17.47
2022-11-28T06:48:52.838Z,16.17
2022-11-28T06:51:21.952Z,21.23
2022-11-28T06:53:50.240Z,16.57
2022-11-28T06:56:20.744Z,14.77
2022-11-28T06:58:54.193Z,16.37
2022-11-28T07:01:24.346Z,14.17
2022-11-28T07:03:55.202Z,16.43
2022-11-28T07:06:24.859Z,18.43
2022-11-28T07:08:53.521Z,17.20
2022-11-28T07:11:24.047Z,17.93
2022-11-28T07:13:52.601Z,17.83
2022-11-28T07:16:23.219Z,15.63
2022-11-28T07:18:51.588Z,17.70
2022-11-28T07:21:21.763Z,18.30
2022-11-28T07:23:50.233Z,19.13
2022-11-28T07:26:20.182Z,20.63
2022-11-28T07:28:49.571Z,19.23
2022-11-28T07:31:20.677Z,17.83
2022-11-28T07:33:52.714Z,18.07
2022-11-28T07:36:23.412Z,15.73
2022-11-28T07:38:53.489Z,20.70
2022-11-28T07:41:26.206Z,18.83
2022-11-28T07:43:56.636Z,19.83
2022-11-28T07:46:26.293Z,19.43
2022-11-28T07:48:54.348Z,21.17
2022-11-28T07:51:25.805Z,22.57
2022-11-28T07:53:54.207Z,17.40
2022-11-28T07:56:24.846Z,20.47
2022-11-28T07:58:52.901Z,16.50
2022-11-28T08:01:22.712Z,16.93
2022-11-28T08:03:50.781Z,20.57
2022-11-28T08:06:20.403Z,14.77
2022-11-28T08:08:50.495Z,14.37
2022-11-28T08:11:21.084Z,16.20
2022-11-28T08:13:49.732Z,15.60
2022-11-28T08:16:20.613Z,14.00
2022-11-28T08:18:49.917Z,13.60
2022-11-28T08:21:20.303Z,16.63
2022-11-28T08:23:51.740Z,19.80
2022-11-28T08:26:24.905Z,20.00
2022-11-28T08:28:57.117Z,15.40
2022-11-28T08:31:27.404Z,15.60
2022-11-28T08:33:57.704Z,17.70
2022-11-28T08:36:29.109Z,17.80
2022-11-28T08:39:22.879Z,15.53
2022-11-28T08:41:49.809Z,16.13
2022-11-28T08:44:18.364Z,15.73
2022-11-28T08:46:46.613Z,17.03
2022-11-28T08:49:21.870Z,18.43
2022-11-28T08:51:50.025Z,16.13
2022-11-28T08:54:19.544Z,15.47
2022-11-28T08:56:50.128Z,15.43
2022-11-28T08:59:18.294Z,17.30
2022-11-28T09:01:46.204Z,17.03
2022-11-28T09:04:14.352Z,15.03
2022-11-28T09:06:44.167Z,16.90
2022-11-28T09:09:16.365Z,14.67
2022-11-28T09:11:46.059Z,13.57
2022-11-28T09:14:16.221Z,12.90
2022-11-28T09:16:44.982Z,15.43
2022-11-28T09:19:13.169Z,14.80
2022-11-28T09:21:41.583Z,12.43
2022-11-28T09:24:10.901Z,14.13
2022-11-28T09:26:39.265Z,15.20
2022-11-28T09:29:09.029Z,12.83
2022-11-28T09:31:37.251Z,11.97
2022-11-28T09:34:09.177Z,12.50
2022-11-28T09:36:40.318Z,11.77
2022-11-28T09:39:08.316Z,12.47
2022-11-28T09:42:01.913Z,11.87
2022-11-28T09:44:39.089Z,12.73
2022-11-28T09:47:13.228Z,13.73
2022-11-28T09:49:47.594Z,13.50
2022-11-28T09:52:26.976Z,14.40
2022-11-28T09:55:03.005Z,10.97
2022-11-28T09:57:35.591Z,11.03
2022-11-28T10:00:07.036Z,12.17
2022-11-28T10:02:40.319Z,12.03
2022-11-28T10:05:18.797Z,12.13
2022-11-28T10:08:01.696Z,13.23
2022-11-28T10:10:38.911Z,12.73
2022-11-28T10:13:14.912Z,13.73
2022-11-28T10:15:56.834Z,13.60
2022-11-28T10:18:35.873Z,12.70
2022-11-28T10:21:09.888Z,13.90
2022-11-28T10:23:43.441Z,11.57
2022-11-28T10:26:19.639Z,15.00
2022-11-28T10:28:51.270Z,16.77
2022-11-28T10:31:30.821Z,13.37
2022-11-28T10:34:03.719Z,14.37
2022-11-28T10:36:35.404Z,10.33
2022-11-28T10:39:11.634Z,14.50
2022-11-28T10:42:13.943Z,14.30
2022-11-28T10:45:00.689Z,14.07
2022-11-28T10:47:50.998Z,13.20
2022-11-28T10:50:32.506Z,13.30
2022-11-28T10:53:04.536Z,13.93
2022-11-28T10:55:44.327Z,13.50
2022-11-28T10:58:24.955Z,12.17
2022-11-28T11:00:56.006Z,11.63
2022-11-28T11:03:29.563Z,14.17
2022-11-28T11:05:57.633Z,13.97
2022-11-28T11:08:28.181Z,11.23
2022-11-28T11:11:02.406Z,16.03
2022-11-28T11:13:33.153Z,12.90
2022-11-28T11:16:03.751Z,18.13
2022-11-28T11:18:36.173Z,11.90
2022-11-28T11:21:17.473Z,17.13
2022-11-28T11:23:45.670Z,13.00
2022-11-28T11:26:26.710Z,13.33
2022-11-28T11:28:55.707Z,14.30
2022-11-28T11:31:26.695Z,15.10
2022-11-28T11:34:04.252Z,12.83
2022-11-28T11:36:34.344Z,17.03
2022-11-28T11:39:18.014Z,15.73
2022-11-28T11:41:47.600Z,15.90
2022-11-28T11:44:35.522Z,13.37
2022-11-28T11:47:05.522Z,13.70
2022-11-28T11:52:07.006Z,14.10
2022-11-28T11:54:35.129Z,14.93
2022-11-28T11:57:31.382Z,14.90
2022-11-28T11:59:56.574Z,15.53
2022-11-28T12:02:29.843Z,14.80
2022-11-28T12:05:03.884Z,13.60
2022-11-28T12:07:40.665Z,17.90
2022-11-28T12:10:16.500Z,14.77
2022-11-28T12:12:44.560Z,15.87
2022-11-28T12:15:20.589Z,14.90
2022-11-28T12:18:01.638Z,16.43
2022-11-28T12:20:45.075Z,15.07
2022-11-28T12:23:31.132Z,17.33
2022-11-28T12:26:07.238Z,15.43
2022-11-28T12:28:47.456Z,13.80
2022-11-28T12:31:25.797Z,19.70
2022-11-28T12:34:04.395Z,17.90
2022-11-28T12:36:38.990Z,14.83
2022-11-28T12:39:28.538Z,20.23
2022-11-28T12:42:16.640Z,18.60
2022-11-28T12:45:00.992Z,15.67
2022-11-28T12:47:41.488Z,16.53
2022-11-28T12:50:22.786Z,16.67
2022-11-28T12:52:59.782Z,19.77
2022-11-28T12:55:42.688Z,14.17
2022-11-28T12:58:19.741Z,17.07
2022-11-28T13:00:56.551Z,13.93
2022-11-28T13:03:41.087Z,21.53
2022-11-28T13:06:27.830Z,18.90
2022-11-28T13:09:25.632Z,15.03
2022-11-28T13:12:04.869Z,18.40
2022-11-28T13:14:42.282Z,16.43
2022-11-28T13:17:24.456Z,17.90
2022-11-28T13:20:00.338Z,19.93
2022-11-28T13:22:34.102Z,23.57
2022-11-28T13:25:09.011Z,18.70
2022-11-28T13:27:45.824Z,23.50
2022-11-28T13:30:22.581Z,19.63
2022-11-28T13:32:58.611Z,32.40
2022-11-28T13:35:28.775Z,21.67
2022-11-28T13:40:55.677Z,19.70
2022-11-28T13:43:34.999Z,24.63
2022-11-28T13:46:03.496Z,26.73
2022-11-28T13:49:14.481Z,22.70
2022-11-28T13:51:44.494Z,21.93
2022-11-28T13:54:47.777Z,23.53
2022-11-28T13:57:30.461Z,24.53
2022-11-28T14:00:05.965Z,21.63
2022-11-28T14:02:43.070Z,21.33
2022-11-28T14:05:28.293Z,21.33
2022-11-28T14:07:57.646Z,17.63
2022-11-28T14:10:50.621Z,23.83
2022-11-28T14:13:49.942Z,19.30
2022-11-28T14:16:33.373Z,28.67
2022-11-28T14:19:15.799Z,25.03
2022-11-28T14:21:59.733Z,24.57
2022-11-28T14:24:42.843Z,20.73
2022-11-28T14:27:21.036Z,23.63
2022-11-28T14:29:51.605Z,22.67
2022-11-28T14:32:33.588Z,25.87
2022-11-28T14:35:02.722Z,29.13
2022-11-28T14:37:49.187Z,21.20
2022-11-28T14:41:06.341Z,25.30
2022-11-28T14:43:38.829Z,24.13
2022-11-28T14:46:29.012Z,20.73
2022-11-28T14:49:23.857Z,23.90
2022-11-28T14:52:38.495Z,27.97
2022-11-28T14:55:18.541Z,24.40
2022-11-28T14:57:58.569Z,23.93
2022-11-28T15:00:28.317Z,23.47
2022-11-28T15:03:19.559Z,24.57
2022-11-28T15:05:51.685Z,22.30
2022-11-28T15:08:53.152Z,22.50
2022-11-28T15:11:44.802Z,24.93
2022-11-28T15:14:24.037Z,25.70
2022-11-28T15:16:56.109Z,24.30
2022-11-28T15:19:27.637Z,23.57
2022-11-28T15:21:57.585Z,25.63
2022-11-28T15:24:28.982Z,24.90
2022-11-28T15:27:00.211Z,25.80
2022-11-28T15:29:29.569Z,25.47
2022-11-28T15:31:59.127Z,27.00
2022-11-28T15:34:30.076Z,24.13
2022-11-28T15:37:01.720Z,27.73
2022-11-28T15:39:35.203Z,26.23
2022-11-28T15:42:04.970Z,27.70
2022-11-28T15:44:33.244Z,34.17
2022-11-28T15:47:01.407Z,29.23
2022-11-28T15:52:06.805Z,29.13
2022-11-28T15:54:38.493Z,25.27
2022-11-28T15:57:07.170Z,29.47
2022-11-28T15:59:35.504Z,29.07
2022-11-28T16:02:12.214Z,29.47
2022-11-28T16:04:42.887Z,30.20
2022-11-28T16:07:14.743Z,29.10
2022-11-28T16:09:54.097Z,32.27
2022-11-28T16:12:22.232Z,29.93
2022-11-28T16:14:53.234Z,30.00
2022-11-28T16:17:24.738Z,28.57
2022-11-28T16:19:55.591Z,28.93
2022-11-28T16:22:31.950Z,30.10
2022-11-28T16:25:14.771Z,26.73
2022-11-28T16:27:48.594Z,29.57
2022-11-28T16:30:27.677Z,27.60
2022-11-28T16:32:57.097Z,32.63
2022-11-28T16:35:30.228Z,26.37
2022-11-28T16:38:17.525Z,43.87
2022-11-28T16:40:46.078Z,31.63
2022-11-28T16:43:22.335Z,35.73
2022-11-28T16:45:59.709Z,26.87
2022-11-28T16:48:29.587Z,32.47
2022-11-28T16:51:28.673Z,32.00
2022-11-28T16:53:59.509Z,27.57
2022-11-28T16:56:43.528Z,26.73
2022-11-28T16:59:14.636Z,26.73
2022-11-28T17:01:44.001Z,24.90
2022-11-28T17:04:21.857Z,27.83
2022-11-28T17:06:50.437Z,26.47
2022-11-28T17:09:20.169Z,27.30
2022-11-28T17:11:55.555Z,26.90
2022-11-28T17:14:23.534Z,26.63
2022-11-28T17:16:51.636Z,27.70
2022-11-28T17:19:19.786Z,24.73
2022-11-28T17:21:52.069Z,25.73
2022-11-28T17:24:23.990Z,24.33
2022-11-28T17:26:53.441Z,25.60
2022-11-28T17:29:22.222Z,25.13
2022-11-28T17:31:50.464Z,28.40
2022-11-28T17:34:20.079Z,24.23
2022-11-28T17:36:48.681Z,29.77
2022-11-28T17:39:17.948Z,29.07
2022-11-28T17:41:48.310Z,27.03
2022-11-28T17:44:20.341Z,32.60
2022-11-28T17:46:48.427Z,28.53
2022-11-28T17:49:16.435Z,29.17
2022-11-28T17:51:44.601Z,28.27
2022-11-28T17:54:14.075Z,26.43
2022-11-28T17:56:42.030Z,32.47
2022-11-28T17:59:13.306Z,26.43
2022-11-28T18:01:41.798Z,29.43
2022-11-28T18:04:43.206Z,25.53
2022-11-28T18:07:31.949Z,25.53
2022-11-28T18:10:20.111Z,23.97
2022-11-28T18:12:48.954Z,27.93
2022-11-28T18:15:18.519Z,31.40
2022-11-28T18:17:46.646Z,42.50
2022-11-28T18:20:14.723Z,36.63
2022-11-28T18:22:43.121Z,39.80
2022-11-28T18:25:11.283Z,38.17
2022-11-28T18:27:39.299Z,31.93
2022-11-28T18:30:08.602Z,30.47
2022-11-28T18:32:37.877Z,28.93
2022-11-28T18:35:06.780Z,32.50
2022-11-28T18:37:34.790Z,30.27
2022-11-28T18:40:07.666Z,27.17
2022-11-28T18:42:37.200Z,30.27
2022-11-28T18:45:05.832Z,31.77
2022-11-28T18:47:37.207Z,34.83
2022-11-28T18:50:06.931Z,32.00
2022-11-28T18:52:34.907Z,31.13
2022-11-28T18:55:03.249Z,35.03
2022-11-28T18:57:33.605Z,35.57
2022-11-28T19:00:02.239Z,31.17
2022-11-28T19:02:30.862Z,29.37
2022-11-28T19:05:00.683Z,32.00
2022-11-28T19:07:28.706Z,35.00
2022-11-28T19:09:56.631Z,33.60
2022-11-28T19:12:24.603Z,37.90
2022-11-28T19:14:56.108Z,32.53
2022-11-28T19:17:26.795Z,35.47
2022-11-28T19:19:55.065Z,38.43
2022-11-28T19:22:24.354Z,33.77
2022-11-28T19:24:52.220Z,35.67
2022-11-28T19:27:20.118Z,34.73
2022-11-28T19:29:48.034Z,34.97
2022-11-28T19:32:16.984Z,38.33
2022-11-28T19:34:45.000Z,33.27
2022-11-28T19:37:15.185Z,30.73
2022-11-28T19:39:44.954Z,32.83
2022-11-28T19:42:13.037Z,29.70
2022-11-28T19:44:41.085Z,46.57
2022-11-28T19:47:09.206Z,34.17
2022-11-28T19:49:37.107Z,33.23
2022-11-28T19:52:06.090Z,35.30
2022-11-28T19:54:35.182Z,35.87
2022-11-28T19:57:04.951Z,33.20
2022-11-28T19:59:32.916Z,32.97
2022-11-28T20:02:02.635Z,30.47
2022-11-28T20:04:30.988Z,29.90
2022-11-28T20:06:59.108Z,28.83
2022-11-28T20:09:27.215Z,30.47
2022-11-28T20:11:55.301Z,28.87
2022-11-28T20:14:24.694Z,34.90
2022-11-28T20:16:52.714Z,30.07
2022-11-28T20:19:20.882Z,29.37
2022-11-28T20:21:49.083Z,32.70
2022-11-28T20:24:19.377Z,32.93
2022-11-28T20:26:47.537Z,29.00
2022-11-28T20:29:17.150Z,29.50
2022-11-28T20:31:48.030Z,28.77
2022-11-28T20:34:18.057Z,30.47
2022-11-28T20:36:46.404Z,33.07
2022-11-28T20:39:14.430Z,35.53
2022-11-28T20:41:42.403Z,37.30
2022-11-28T20:44:12.119Z,37.97
2022-11-28T20:46:40.324Z,29.43
2022-11-28T20:49:09.786Z,30.50
2022-11-28T20:51:37.776Z,31.20
2022-11-28T20:54:07.154Z,27.63
2022-11-28T20:56:58.322Z,29.47
2022-11-28T20:59:27.224Z,28.10
2022-11-28T21:01:55.445Z,27.27
2022-11-28T21:04:25.134Z,29.03
2022-11-28T21:06:53.234Z,25.20
2022-11-28T21:09:23.687Z,27.23
2022-11-28T21:11:59.605Z,29.90
2022-11-28T21:14:29.084Z,29.93
2022-11-28T21:17:05.800Z,29.40
2022-11-28T21:19:35.205Z,31.63
2022-11-28T21:22:03.198Z,28.23
2022-11-28T21:24:31.356Z,29.73
2022-11-28T21:26:59.440Z,30.83
2022-11-28T21:29:27.356Z,28.70
2022-11-28T21:31:55.551Z,27.73
2022-11-28T21:34:23.838Z,30.07
2022-11-28T21:36:57.017Z,29.30
2022-11-28T21:39:24.923Z,31.10
2022-11-28T21:41:52.768Z,31.67
2022-11-28T21:44:21.067Z,28.70
2022-11-28T21:46:48.998Z,31.70
2022-11-28T21:49:17.200Z,28.43
2022-11-28T21:51:45.200Z,29.17
2022-11-28T21:54:14.671Z,33.80
2022-11-28T21:56:43.048Z,30.87
2022-11-28T21:59:10.968Z,28.50
2022-11-28T22:01:40.288Z,29.87
2022-11-28T22:04:08.868Z,31.63
2022-11-28T22:06:36.695Z,32.70
2022-11-28T22:09:09.469Z,28.70
2022-11-28T22:11:39.889Z,26.13
2022-11-28T22:14:07.964Z,29.63
2022-11-28T22:16:36.116Z,31.27
2022-11-28T22:19:04.158Z,32.57
2022-11-28T22:24:20.788Z,31.60
2022-11-28T22:26:50.282Z,33.67
2022-11-28T22:29:18.333Z,32.93
2022-11-28T22:31:46.372Z,30.07
2022-11-28T22:34:14.408Z,30.33
2022-11-28T22:36:42.790Z,32.27
2022-11-28T22:39:12.179Z,30.83
2022-11-28T22:41:40.294Z,29.47
2022-11-28T22:44:11.301Z,32.50
2022-11-28T22:46:39.218Z,32.87
2022-11-28T22:49:08.003Z,30.57
2022-11-28T22:51:37.001Z,28.83
2022-11-28T22:54:05.456Z,32.03
2022-11-28T22:56:34.498Z,37.93
2022-11-28T22:59:04.720Z,32.87
2022-11-28T23:01:34.655Z,36.73
2022-11-28T23:04:02.811Z,32.60
2022-11-28T23:06:32.781Z,36.83
2022-11-28T23:09:02.961Z,34.43
2022-11-28T23:11:33.342Z,37.33
2022-11-28T23:14:02.661Z,36.33
2022-11-28T23:16:34.135Z,37.20
2022-11-28T23:19:04.569Z,35.63
2022-11-28T23:21:34.670Z,31.00
2022-11-28T23:24:02.572Z,32.50
2022-11-28T23:26:32.360Z,32.43
2022-11-28T23:29:01.867Z,34.47
2022-11-28T23:31:31.499Z,33.83
2022-11-28T23:34:01.763Z,32.23
2022-11-28T23:36:33.733Z,33.97
2022-11-28T23:39:07.701Z,33.97
2022-11-28T23:41:35.649Z,29.10
2022-11-28T23:44:03.637Z,35.53
2022-11-28T23:46:31.740Z,33.57
2022-11-28T23:49:00.998Z,34.17
2022-11-28T23:51:28.964Z,34.43
2022-11-28T23:53:57.113Z,32.23
2022-11-28T23:56:28.062Z,33.23
2022-11-28T23:58:57.886Z,34.07
